createdAt,value
2022-10-26T00:01:15.035Z,10.50
2022-10-26T00:03:45.095Z,12.95
2022-10-26T00:06:18.600Z,9.20
2022-10-26T00:08:46.835Z,7.28
2022-10-26T00:11:14.496Z,10.23
2022-10-26T00:13:42.254Z,12.10
2022-10-26T00:16:22.964Z,9.70
2022-10-26T00:18:50.787Z,11.55
2022-10-26T00:21:18.761Z,11.60
2022-10-26T00:23:46.152Z,11.02
2022-10-26T00:26:13.321Z,10.00
2022-10-26T00:28:40.413Z,11.25
2022-10-26T00:31:14.504Z,13.57
2022-10-26T00:33:41.807Z,8.02
2022-10-26T00:36:10.235Z,10.98
2022-10-26T00:38:38.183Z,9.70
2022-10-26T00:41:05.934Z,13.77
2022-10-26T00:43:36.824Z,14.60
2022-10-26T00:46:07.486Z,13.30
2022-10-26T00:48:43.288Z,15.18
2022-10-26T00:53:45.110Z,9.48
2022-10-26T00:56:12.943Z,9.65
2022-10-26T00:58:40.720Z,12.35
2022-10-26T01:01:07.836Z,12.05
2022-10-26T01:03:37.061Z,9.07
2022-10-26T01:06:06.065Z,8.55
2022-10-26T01:08:33.522Z,7.72
2022-10-26T01:11:01.746Z,8.40
2022-10-26T01:13:33.267Z,10.27
2022-10-26T01:16:29.174Z,14.23
2022-10-26T01:19:14.035Z,11.35
2022-10-26T01:22:00.985Z,12.85
2022-10-26T01:25:12.688Z,12.82
2022-10-26T01:27:52.759Z,9.15
2022-10-26T01:30:30.168Z,13.85
2022-10-26T01:33:19.759Z,13.27
2022-10-26T01:36:11.448Z,12.30
2022-10-26T01:39:00.012Z,9.93
2022-10-26T01:41:58.486Z,13.23
2022-10-26T01:44:42.005Z,14.68
2022-10-26T01:47:16.631Z,16.35
2022-10-26T01:49:59.192Z,15.15
2022-10-26T01:52:26.606Z,17.30
2022-10-26T01:55:26.989Z,19.13
2022-10-26T01:58:01.549Z,14.43
2022-10-26T02:00:31.312Z,13.98
2022-10-26T02:03:52.960Z,12.82
2022-10-26T02:06:35.588Z,15.65
2022-10-26T02:09:08.521Z,19.63
2022-10-26T02:11:49.477Z,13.73
2022-10-26T02:14:39.379Z,15.95
2022-10-26T02:17:18.204Z,17.42
2022-10-26T02:19:54.815Z,14.18
2022-10-26T02:22:42.630Z,14.38
2022-10-26T02:25:16.303Z,20.10
2022-10-26T02:27:51.053Z,17.73
2022-10-26T02:30:18.875Z,12.90
2022-10-26T02:32:51.367Z,14.40
2022-10-26T02:35:22.965Z,18.77
2022-10-26T02:37:53.220Z,13.40
2022-10-26T02:40:26.905Z,12.63
2022-10-26T02:42:57.208Z,13.32
2022-10-26T02:45:30.994Z,7.88
2022-10-26T02:47:58.665Z,7.63
2022-10-26T02:50:58.457Z,9.30
2022-10-26T02:54:06.703Z,5.68
2022-10-26T02:56:48.912Z,7.10
2022-10-26T02:59:20.007Z,8.05
2022-10-26T03:01:47.595Z,8.60
2022-10-26T03:04:14.791Z,6.93
2022-10-26T03:06:41.883Z,7.50
2022-10-26T03:09:09.004Z,10.05
2022-10-26T03:11:36.044Z,7.80
2022-10-26T03:14:03.142Z,6.95
2022-10-26T03:16:30.188Z,8.73
2022-10-26T03:18:57.236Z,7.18
2022-10-26T03:21:24.436Z,6.68
2022-10-26T03:23:51.497Z,6.80
2022-10-26T03:26:18.506Z,9.63
2022-10-26T03:28:45.603Z,11.13
2022-10-26T03:31:12.906Z,9.55
2022-10-26T03:33:39.941Z,6.88
2022-10-26T03:36:07.656Z,6.50
2022-10-26T03:38:34.908Z,6.70
2022-10-26T03:41:02.040Z,7.18
2022-10-26T03:43:29.093Z,7.72
2022-10-26T03:45:56.248Z,9.55
2022-10-26T03:48:23.315Z,9.48
2022-10-26T03:50:50.353Z,8.68
2022-10-26T03:53:17.359Z,9.82
2022-10-26T03:55:45.588Z,20.90
2022-10-26T03:58:12.770Z,7.90
2022-10-26T04:00:39.933Z,12.98
2022-10-26T04:03:06.987Z,14.88
2022-10-26T04:05:34.241Z,12.13
2022-10-26T04:08:05.311Z,15.35
2022-10-26T04:10:32.746Z,18.58
2022-10-26T04:13:01.305Z,12.50
2022-10-26T04:15:29.669Z,14.20
2022-10-26T04:17:59.271Z,14.18
2022-10-26T04:20:28.287Z,20.48
2022-10-26T04:23:06.809Z,13.25
2022-10-26T04:25:34.498Z,12.65
2022-10-26T04:28:03.570Z,13.95
2022-10-26T04:30:32.315Z,11.45
2022-10-26T04:32:59.806Z,20.52
2022-10-26T04:35:27.669Z,9.25
2022-10-26T04:38:03.084Z,14.57
2022-10-26T04:40:32.033Z,29.27
2022-10-26T04:42:59.530Z,15.32
2022-10-26T04:45:31.077Z,16.45
2022-10-26T04:48:13.933Z,9.02
2022-10-26T04:50:41.590Z,12.25
2022-10-26T04:53:09.946Z,7.53
2022-10-26T04:55:37.307Z,11.55
2022-10-26T04:58:05.297Z,11.95
2022-10-26T05:00:33.493Z,9.07
2022-10-26T05:03:06.482Z,18.17
2022-10-26T05:05:36.206Z,12.10
2022-10-26T05:08:04.206Z,15.57
2022-10-26T05:10:31.774Z,11.52
2022-10-26T05:13:00.728Z,10.43
2022-10-26T05:15:28.110Z,8.82
2022-10-26T05:18:00.359Z,12.15
2022-10-26T05:20:31.022Z,11.13
2022-10-26T05:23:01.185Z,9.48
2022-10-26T05:25:31.242Z,12.70
2022-10-26T05:27:59.944Z,16.50
2022-10-26T05:30:28.535Z,8.52
2022-10-26T05:32:56.919Z,9.05
2022-10-26T05:35:25.844Z,21.67
2022-10-26T05:37:53.934Z,11.48
2022-10-26T05:40:22.232Z,10.30
2022-10-26T05:42:51.117Z,10.23
2022-10-26T05:45:18.536Z,9.95
2022-10-26T05:47:46.937Z,11.35
2022-10-26T05:50:14.590Z,13.57
2022-10-26T05:52:46.530Z,14.25
2022-10-26T05:55:17.210Z,14.35
2022-10-26T05:57:45.061Z,11.55
2022-10-26T06:00:21.316Z,14.27
2022-10-26T06:03:28.314Z,14.55
2022-10-26T06:06:00.658Z,17.23
2022-10-26T06:08:30.606Z,22.20
2022-10-26T06:10:59.651Z,20.52
2022-10-26T06:13:27.309Z,19.15
2022-10-26T06:16:32.234Z,24.08
2022-10-26T06:19:31.736Z,27.70
2022-10-26T06:22:23.758Z,26.48
2022-10-26T06:25:27.578Z,24.67
2022-10-26T06:28:25.289Z,36.28
2022-10-26T06:30:52.827Z,40.00
2022-10-26T06:33:35.522Z,38.63
2022-10-26T06:36:21.629Z,35.53
2022-10-26T06:38:54.350Z,37.00
2022-10-26T06:41:22.795Z,35.33
2022-10-26T06:43:50.394Z,40.45
2022-10-26T06:46:51.853Z,38.05
2022-10-26T06:49:30.661Z,39.20
2022-10-26T06:52:18.639Z,47.28
2022-10-26T06:54:54.749Z,42.53
2022-10-26T06:57:25.021Z,41.97
2022-10-26T07:00:00.005Z,44.42
2022-10-26T07:02:27.881Z,45.70
2022-10-26T07:04:55.146Z,43.03
2022-10-26T07:07:29.334Z,46.22
2022-10-26T07:09:56.580Z,41.30
2022-10-26T07:12:23.667Z,51.83
2022-10-26T07:14:50.751Z,55.95
2022-10-26T07:17:17.810Z,54.20
2022-10-26T07:19:45.058Z,51.90
2022-10-26T07:22:12.882Z,47.90
2022-10-26T07:24:40.426Z,50.42
2022-10-26T07:27:07.623Z,51.22
2022-10-26T07:29:35.510Z,51.67
2022-10-26T07:32:02.920Z,49.42
2022-10-26T07:34:30.062Z,62.45
2022-10-26T07:36:58.982Z,52.42
2022-10-26T07:39:26.105Z,52.70
2022-10-26T07:41:53.243Z,49.42
2022-10-26T07:44:20.439Z,48.17
2022-10-26T07:46:47.498Z,39.97
2022-10-26T07:49:17.594Z,41.70
2022-10-26T07:51:46.786Z,44.28
2022-10-26T07:54:13.944Z,61.15
2022-10-26T07:56:41.016Z,56.67
2022-10-26T07:59:13.286Z,57.28
2022-10-26T08:01:40.451Z,66.10
2022-10-26T08:04:07.578Z,59.80
2022-10-26T08:06:34.650Z,61.78
2022-10-26T08:09:01.834Z,54.20
2022-10-26T08:11:28.916Z,67.07
2022-10-26T08:13:56.317Z,61.95
2022-10-26T08:16:23.847Z,74.35
2022-10-26T08:18:51.723Z,63.35
2022-10-26T08:21:22.150Z,63.22
2022-10-26T08:24:03.271Z,78.00
2022-10-26T08:26:30.706Z,66.15
2022-10-26T08:28:57.788Z,76.88
2022-10-26T08:31:24.967Z,62.70
2022-10-26T08:33:52.021Z,76.57
2022-10-26T08:36:25.644Z,109.15
2022-10-26T08:38:52.773Z,92.38
2022-10-26T08:41:45.145Z,95.50
2022-10-26T08:44:25.053Z,65.55
2022-10-26T08:47:03.177Z,92.45
2022-10-26T08:49:57.642Z,76.50
2022-10-26T08:53:04.733Z,66.55
2022-10-26T08:55:55.469Z,70.97
2022-10-26T08:58:28.855Z,78.13
2022-10-26T09:00:56.107Z,81.30
2022-10-26T09:03:24.489Z,73.78
2022-10-26T09:06:28.284Z,68.25
2022-10-26T09:10:03.466Z,86.80
2022-10-26T09:12:57.687Z,66.25
2022-10-26T09:15:30.192Z,71.47
2022-10-26T09:18:18.149Z,70.68
2022-10-26T09:21:24.700Z,66.22
2022-10-26T09:24:32.662Z,76.93
2022-10-26T09:27:24.539Z,68.10
2022-10-26T09:29:53.171Z,62.25
2022-10-26T09:32:36.990Z,62.47
2022-10-26T09:35:20.390Z,65.47
2022-10-26T09:38:17.304Z,72.95
2022-10-26T09:41:21.844Z,69.75
2022-10-26T09:44:19.826Z,68.53
2022-10-26T09:47:01.847Z,71.38
2022-10-26T09:49:43.070Z,74.93
2022-10-26T09:54:43.837Z,71.25
2022-10-26T09:57:19.831Z,78.50
2022-10-26T10:02:37.081Z,76.57
2022-10-26T10:08:25.968Z,71.95
2022-10-26T10:11:14.600Z,75.15
2022-10-26T10:13:46.681Z,81.75
2022-10-26T10:16:24.159Z,89.38
2022-10-26T10:18:58.146Z,79.93
2022-10-26T10:21:44.443Z,84.82
2022-10-26T10:27:17.959Z,75.32
2022-10-26T10:30:14.100Z,74.07
2022-10-26T10:32:43.744Z,73.63
2022-10-26T10:35:30.915Z,81.38
2022-10-26T10:37:58.493Z,94.60
2022-10-26T10:40:31.419Z,82.65
2022-10-26T10:43:14.066Z,81.90
2022-10-26T10:45:41.565Z,84.30
2022-10-26T10:48:34.652Z,82.80
2022-10-26T10:51:14.614Z,74.10
2022-10-26T10:54:25.180Z,70.03
2022-10-26T10:56:57.723Z,74.55
2022-10-26T11:00:00.229Z,69.75
2022-10-26T11:02:45.214Z,67.15
2022-10-26T11:05:39.177Z,65.10
2022-10-26T11:08:40.256Z,64.10
2022-10-26T11:11:18.837Z,73.95
2022-10-26T11:13:48.550Z,70.65
2022-10-26T11:16:29.801Z,70.13
2022-10-26T11:19:08.147Z,68.40
2022-10-26T11:21:38.229Z,64.78
2022-10-26T11:24:25.032Z,72.95
2022-10-26T11:27:05.967Z,78.22
2022-10-26T11:30:02.302Z,69.07
2022-10-26T11:33:06.872Z,80.43
2022-10-26T11:35:57.859Z,59.53
2022-10-26T11:39:03.958Z,73.40
2022-10-26T11:42:24.804Z,66.75
2022-10-26T11:45:28.226Z,71.13
2022-10-26T11:48:46.283Z,67.95
2022-10-26T11:51:39.960Z,74.50
2022-10-26T11:54:32.508Z,72.50
2022-10-26T11:57:01.151Z,71.82
2022-10-26T11:59:39.132Z,73.45
2022-10-26T12:02:22.691Z,68.70
2022-10-26T12:05:06.070Z,69.55
2022-10-26T12:07:38.937Z,75.55
2022-10-26T12:10:16.402Z,66.72
2022-10-26T12:13:20.606Z,63.25
2022-10-26T12:16:30.289Z,59.03
2022-10-26T12:19:09.772Z,65.43
2022-10-26T12:21:36.905Z,58.95
2022-10-26T12:24:22.551Z,66.50
2022-10-26T12:27:06.013Z,75.57
2022-10-26T12:29:49.497Z,65.75
2022-10-26T12:32:28.710Z,60.45
2022-10-26T12:34:55.681Z,51.38
2022-10-26T12:37:37.777Z,55.60
2022-10-26T12:40:33.146Z,50.20
2022-10-26T12:43:18.280Z,54.00
2022-10-26T12:46:07.273Z,54.95
2022-10-26T12:48:49.394Z,55.00
2022-10-26T12:51:22.769Z,57.10
2022-10-26T12:54:04.369Z,54.92
2022-10-26T12:56:56.708Z,56.90
2022-10-26T12:59:56.363Z,60.03
2022-10-26T13:02:55.134Z,52.08
2022-10-26T13:06:01.982Z,46.42
2022-10-26T13:08:39.134Z,45.92
2022-10-26T13:11:21.331Z,46.47
2022-10-26T13:13:58.268Z,47.45
2022-10-26T13:16:28.460Z,47.03
2022-10-26T13:18:56.741Z,49.97
2022-10-26T13:21:26.098Z,49.72
2022-10-26T13:24:06.253Z,42.45
2022-10-26T13:27:05.189Z,46.08
2022-10-26T13:29:33.693Z,47.70
2022-10-26T13:32:00.947Z,42.80
2022-10-26T13:34:32.039Z,47.70
2022-10-26T13:37:05.678Z,47.53
2022-10-26T13:39:56.126Z,49.60
2022-10-26T13:45:14.542Z,48.75
2022-10-26T13:48:01.793Z,46.58
2022-10-26T13:50:38.135Z,46.30
2022-10-26T13:53:53.433Z,48.45
2022-10-26T13:56:37.139Z,41.63
2022-10-26T13:59:13.024Z,44.67
2022-10-26T14:01:40.360Z,42.17
2022-10-26T14:04:28.270Z,46.60
2022-10-26T14:06:55.986Z,54.92
2022-10-26T14:09:23.525Z,59.35
2022-10-26T14:11:58.332Z,56.40
2022-10-26T14:14:30.834Z,46.67
2022-10-26T14:16:59.026Z,49.38
2022-10-26T14:19:36.593Z,50.58
2022-10-26T14:22:04.758Z,47.15
2022-10-26T14:24:48.267Z,63.55
2022-10-26T14:27:18.897Z,65.93
2022-10-26T14:30:03.780Z,65.95
2022-10-26T14:32:33.997Z,56.15
2022-10-26T14:35:01.253Z,51.83
2022-10-26T14:37:45.910Z,61.40
2022-10-26T14:40:20.225Z,58.47
2022-10-26T14:43:02.097Z,63.20
2022-10-26T14:45:54.372Z,58.35
2022-10-26T14:48:32.406Z,61.38
2022-10-26T14:51:05.764Z,66.88
2022-10-26T14:53:41.011Z,61.95
2022-10-26T14:56:28.979Z,60.38
2022-10-26T14:58:58.347Z,66.07
2022-10-26T15:01:33.359Z,55.40
2022-10-26T15:04:06.903Z,66.68
2022-10-26T15:06:45.297Z,63.55
2022-10-26T15:09:53.526Z,67.88
2022-10-26T15:12:39.224Z,69.72
2022-10-26T15:15:15.439Z,70.00
2022-10-26T15:17:53.409Z,62.17
2022-10-26T15:20:24.684Z,66.38
2022-10-26T15:23:01.207Z,65.05
2022-10-26T15:25:34.397Z,62.83
2022-10-26T15:28:20.499Z,71.45
2022-10-26T15:31:10.543Z,71.10
2022-10-26T15:33:41.117Z,64.38
2022-10-26T15:36:26.628Z,63.80
2022-10-26T15:38:54.016Z,66.00
2022-10-26T15:41:44.437Z,62.10
2022-10-26T15:44:17.866Z,59.78
2022-10-26T15:46:46.196Z,59.17
2022-10-26T15:49:20.662Z,57.90
2022-10-26T15:51:49.113Z,52.72
2022-10-26T15:54:16.717Z,55.10
2022-10-26T15:56:44.695Z,63.13
2022-10-26T15:59:19.888Z,63.00
2022-10-26T16:01:47.149Z,61.15
2022-10-26T16:04:14.356Z,62.10
2022-10-26T16:06:42.784Z,53.67
2022-10-26T16:09:17.883Z,56.60
2022-10-26T16:11:45.593Z,55.95
2022-10-26T16:14:13.155Z,51.47
2022-10-26T16:16:41.414Z,50.38
2022-10-26T16:19:31.009Z,48.33
2022-10-26T16:21:57.624Z,42.20
2022-10-26T16:24:25.356Z,51.20
2022-10-26T16:26:52.581Z,50.97
2022-10-26T16:29:20.805Z,47.90
2022-10-26T16:31:48.774Z,47.90
2022-10-26T16:34:16.225Z,42.60
2022-10-26T16:36:43.798Z,42.17
2022-10-26T16:39:14.490Z,47.05
2022-10-26T16:41:41.796Z,40.05
2022-10-26T16:44:12.895Z,49.05
2022-10-26T16:46:40.355Z,42.38
2022-10-26T16:49:08.031Z,51.92
2022-10-26T16:51:35.186Z,40.80
2022-10-26T16:54:02.602Z,44.50
2022-10-26T16:56:30.650Z,42.58
2022-10-26T16:58:58.530Z,43.40
2022-10-26T17:01:26.578Z,51.80
2022-10-26T17:03:54.177Z,42.05
2022-10-26T17:06:24.557Z,53.08
2022-10-26T17:08:52.131Z,44.58
2022-10-26T17:11:21.902Z,44.35
2022-10-26T17:13:54.382Z,44.72
2022-10-26T17:16:25.493Z,46.65
2022-10-26T17:18:55.235Z,46.33
2022-10-26T17:21:35.348Z,46.67
2022-10-26T17:24:03.921Z,47.75
2022-10-26T17:26:31.731Z,51.85
2022-10-26T17:28:59.865Z,43.35
2022-10-26T17:31:28.100Z,49.20
2022-10-26T17:33:57.829Z,51.60
2022-10-26T17:36:27.666Z,56.67
2022-10-26T17:38:57.916Z,61.47
2022-10-26T17:41:26.239Z,55.00
2022-10-26T17:43:54.440Z,48.38
2022-10-26T17:46:27.142Z,50.88
2022-10-26T17:49:00.542Z,50.55
2022-10-26T17:51:31.505Z,51.90
2022-10-26T17:54:00.680Z,50.50
2022-10-26T17:56:34.531Z,56.05
2022-10-26T17:59:06.877Z,52.75
2022-10-26T18:01:35.031Z,57.67
2022-10-26T18:04:03.527Z,47.92
2022-10-26T18:06:32.851Z,59.63
2022-10-26T18:09:01.205Z,50.00
2022-10-26T18:14:03.294Z,52.70
2022-10-26T18:16:31.784Z,53.85
2022-10-26T18:19:04.836Z,48.72
2022-10-26T18:21:39.831Z,56.47
2022-10-26T18:24:09.980Z,48.03
2022-10-26T18:26:38.315Z,49.10
2022-10-26T18:29:07.603Z,51.17
2022-10-26T18:31:37.490Z,48.85
2022-10-26T18:34:07.565Z,48.50
2022-10-26T18:36:38.970Z,50.67
2022-10-26T18:39:09.246Z,55.78
2022-10-26T18:41:37.271Z,59.33
2022-10-26T18:44:05.690Z,58.47
2022-10-26T18:46:45.622Z,56.90
2022-10-26T18:49:14.770Z,50.00
2022-10-26T18:51:44.135Z,59.63
2022-10-26T18:54:14.496Z,51.42
2022-10-26T18:56:42.892Z,60.10
2022-10-26T18:59:14.241Z,67.18
2022-10-26T19:01:42.812Z,54.58
2022-10-26T19:04:11.797Z,56.67
2022-10-26T19:06:48.104Z,52.72
2022-10-26T19:09:19.343Z,54.38
2022-10-26T19:11:52.562Z,53.40
2022-10-26T19:14:21.086Z,49.85
2022-10-26T19:16:51.417Z,51.85
2022-10-26T19:19:21.737Z,46.47
2022-10-26T19:21:52.229Z,47.13
2022-10-26T19:24:23.473Z,49.65
2022-10-26T19:26:52.889Z,47.35
2022-10-26T19:29:23.212Z,49.17
2022-10-26T19:31:54.788Z,46.53
2022-10-26T19:34:25.681Z,45.85
2022-10-26T19:36:55.753Z,46.92
2022-10-26T19:39:25.552Z,52.20
2022-10-26T19:41:57.077Z,46.40
2022-10-26T19:44:26.803Z,46.40
2022-10-26T19:46:55.324Z,43.85
2022-10-26T19:49:24.302Z,46.15
2022-10-26T19:51:52.784Z,43.08
2022-10-26T19:54:21.343Z,48.88
2022-10-26T19:56:49.639Z,44.10
2022-10-26T19:59:19.617Z,43.10
2022-10-26T20:01:48.140Z,40.88
2022-10-26T20:04:16.380Z,42.42
2022-10-26T20:06:44.907Z,43.60
2022-10-26T20:11:44.926Z,42.03
2022-10-26T20:14:17.919Z,43.97
2022-10-26T20:16:45.750Z,42.75
2022-10-26T20:19:13.990Z,43.88
2022-10-26T20:21:42.715Z,40.28
2022-10-26T20:24:13.788Z,40.97
2022-10-26T20:26:43.138Z,45.67
2022-10-26T20:29:11.697Z,45.85
2022-10-26T20:31:40.232Z,44.90
2022-10-26T20:34:10.429Z,41.65
2022-10-26T20:36:40.316Z,50.47
2022-10-26T20:39:10.974Z,46.13
2022-10-26T20:41:44.062Z,41.80
2022-10-26T20:44:25.752Z,42.50
2022-10-26T20:46:54.830Z,45.97
2022-10-26T20:49:23.106Z,49.65
2022-10-26T20:52:19.521Z,44.25
2022-10-26T20:55:02.846Z,47.10
2022-10-26T20:57:34.381Z,43.65
2022-10-26T21:00:12.495Z,37.17
2022-10-26T21:02:40.095Z,37.70
2022-10-26T21:05:07.726Z,42.20
2022-10-26T21:07:35.076Z,41.38
2022-10-26T21:10:02.453Z,44.10
2022-10-26T21:12:31.272Z,44.00
2022-10-26T21:14:58.541Z,37.58
2022-10-26T21:17:25.841Z,38.60
2022-10-26T21:19:53.060Z,35.55
2022-10-26T21:22:20.167Z,38.58
2022-10-26T21:24:47.287Z,41.97
2022-10-26T21:27:14.351Z,34.80
2022-10-26T21:29:41.409Z,52.40
2022-10-26T21:32:08.744Z,49.60
2022-10-26T21:34:35.881Z,48.33
2022-10-26T21:37:02.957Z,46.75
2022-10-26T21:39:30.011Z,47.75
2022-10-26T21:41:57.078Z,47.05
2022-10-26T21:44:39.965Z,44.08
2022-10-26T21:47:08.673Z,47.28
2022-10-26T21:49:35.950Z,41.97
2022-10-26T21:52:03.136Z,38.58
2022-10-26T21:54:30.290Z,36.95
2022-10-26T21:56:57.364Z,37.30
2022-10-26T21:59:24.482Z,45.72
2022-10-26T22:01:51.726Z,43.35
2022-10-26T22:04:18.977Z,36.92
2022-10-26T22:06:46.068Z,38.97
2022-10-26T22:09:13.141Z,40.13
2022-10-26T22:11:40.230Z,38.63
2022-10-26T22:14:07.391Z,39.88
2022-10-26T22:16:34.864Z,35.42
2022-10-26T22:19:07.644Z,34.05
2022-10-26T22:21:38.003Z,35.92
2022-10-26T22:24:06.327Z,35.63
2022-10-26T22:26:36.274Z,35.92
2022-10-26T22:29:04.687Z,31.52
2022-10-26T22:31:36.867Z,29.45
2022-10-26T22:34:08.415Z,31.38
2022-10-26T22:36:35.855Z,38.33
2022-10-26T22:39:03.631Z,34.35
2022-10-26T22:41:30.833Z,34.40
2022-10-26T22:43:57.936Z,32.42
2022-10-26T22:46:27.769Z,33.50
2022-10-26T22:48:58.335Z,32.63
2022-10-26T22:51:28.630Z,31.17
2022-10-26T22:53:58.414Z,31.30
2022-10-26T22:56:27.849Z,30.48
2022-10-26T22:58:55.330Z,30.10
2022-10-26T23:01:26.795Z,29.05
2022-10-26T23:03:57.832Z,29.90
2022-10-26T23:06:28.157Z,29.52
2022-10-26T23:08:55.497Z,33.28
2022-10-26T23:11:25.451Z,32.55
2022-10-26T23:13:54.910Z,32.40
2022-10-26T23:16:22.274Z,35.00
2022-10-26T23:18:49.904Z,40.70
2022-10-26T23:21:17.934Z,27.25
2022-10-26T23:23:45.423Z,25.48
2022-10-26T23:26:16.669Z,82.18
2022-10-26T23:28:44.880Z,29.55
2022-10-26T23:31:21.643Z,30.67
2022-10-26T23:33:53.137Z,28.20
2022-10-26T23:36:20.738Z,29.05
2022-10-26T23:38:48.679Z,24.05
2022-10-26T23:41:15.937Z,26.60
2022-10-26T23:43:43.112Z,40.75
2022-10-26T23:46:10.696Z,19.30
2022-10-26T23:48:37.796Z,55.30
2022-10-26T23:51:04.914Z,30.00
2022-10-26T23:53:32.179Z,19.38
2022-10-26T23:55:59.248Z,16.92
2022-10-26T23:58:26.334Z,24.17
